Station Historical Data
Daily Summary for August 16, 2017 Units:  English    Metric   Both
« Previous Day
Next Day »
Daily Weekly Monthly Yearly Custom
  High: Low: Average:
Temperature: 79.6 °F 60.4 °F 69.8 °F
Dew Point: 65.5 °F 58.1 °F 61.8 °F
Humidity: 93% 56% 77%
Wind Speed: 8.0mph 0.0mph 1.5mph
Wind Gust: 11.0mph - -
Wind- - ESE
Pressure: 30.07 in 29.93 in -
Precipitation: 0.00 in    
Historical Graphs
 
 
Tabular Data for August 16, 2017
Time Temperature Dew Point Pressure Wind Wind Speed Wind Gust Humidity Rainfall Rate (Hourly)
00:04 67.1 °F 65.0 °F 29.93 in Calm     93% 0.00 in
00:09 67.0 °F 64.9 °F 29.93 in Calm     93% 0.00 in
00:14 66.9 °F 64.8 °F 29.94 in Calm     93% 0.00 in
00:19 66.8 °F 64.7 °F 29.94 in Calm     93% 0.00 in
00:24 66.8 °F 64.7 °F 29.94 in Calm     93% 0.00 in
00:29 66.9 °F 64.8 °F 29.94 in Calm     93% 0.00 in
00:34 67.1 °F 65.0 °F 29.94 in Calm     93% 0.00 in
00:39 67.1 °F 65.0 °F 29.94 in Calm     93% 0.00 in
00:44 67.4 °F 65.3 °F 29.94 in Calm   3.0 mph 93% 0.00 in
00:49 67.3 °F 65.2 °F 29.95 in Calm     93% 0.00 in
00:54 67.1 °F 65.0 °F 29.94 in Calm   3.0 mph 93% 0.00 in
00:59 66.8 °F 64.4 °F 29.94 in Calm   3.0 mph 92% 0.00 in
01:04 66.4 °F 64.3 °F 29.94 in Calm     93% 0.00 in
01:09 66.0 °F 63.9 °F 29.94 in Calm     93% 0.00 in
01:14 65.7 °F 63.6 °F 29.94 in Calm     93% 0.00 in
01:19 65.5 °F 63.1 °F 29.94 in Calm     92% 0.00 in
01:24 65.1 °F 62.7 °F 29.94 in Calm     92% 0.00 in
01:29 64.8 °F 62.4 °F 29.94 in Calm     92% 0.00 in
01:34 64.5 °F 62.1 °F 29.94 in Calm     92% 0.00 in
01:39 64.2 °F 61.8 °F 29.94 in Calm     92% 0.00 in
01:44 64.1 °F 61.7 °F 29.94 in Calm     92% 0.00 in
01:49 63.9 °F 61.5 °F 29.94 in Calm     92% 0.00 in
01:54 63.8 °F 61.4 °F 29.94 in Calm     92% 0.00 in
01:59 63.8 °F 61.4 °F 29.94 in Calm     92% 0.00 in
02:04 63.6 °F 61.2 °F 29.95 in Calm     92% 0.00 in
02:09 63.5 °F 60.8 °F 29.95 in Calm     91% 0.00 in
02:14 63.3 °F 60.6 °F 29.95 in Calm     91% 0.00 in
02:19 63.3 °F 60.6 °F 29.95 in Calm     91% 0.00 in
02:24 63.2 °F 60.5 °F 29.95 in Calm     91% 0.00 in
02:29 63.2 °F 60.5 °F 29.95 in Calm     91% 0.00 in
02:34 63.2 °F 60.5 °F 29.96 in Calm     91% 0.00 in
02:39 63.2 °F 60.5 °F 29.96 in Calm     91% 0.00 in
02:44 63.2 °F 60.5 °F 29.96 in Calm     91% 0.00 in
02:49 63.1 °F 60.4 °F 29.96 in Calm     91% 0.00 in
02:54 62.9 °F 60.2 °F 29.96 in Calm     91% 0.00 in
02:59 63.0 °F 60.6 °F 29.96 in Calm     92% 0.00 in
03:04 63.0 °F 60.6 °F 29.96 in Calm     92% 0.00 in
03:09 62.9 °F 60.5 °F 29.97 in Calm     92% 0.00 in
03:14 62.9 °F 60.5 °F 29.97 in Calm     92% 0.00 in
03:19 62.8 °F 60.4 °F 29.97 in Calm     92% 0.00 in
03:24 62.7 °F 60.3 °F 29.97 in Calm     92% 0.00 in
03:29 62.7 °F 60.3 °F 29.97 in Calm     92% 0.00 in
03:34 62.6 °F 60.2 °F 29.97 in Calm     92% 0.00 in
03:39 62.6 °F 60.2 °F 29.97 in Calm     92% 0.00 in
03:44 62.7 °F 60.3 °F 29.97 in Calm     92% 0.00 in
03:49 62.7 °F 60.3 °F 29.97 in Calm     92% 0.00 in
03:54 62.6 °F 60.2 °F 29.97 in Calm     92% 0.00 in
03:59 62.5 °F 60.1 °F 29.96 in Calm     92% 0.00 in
04:04 62.3 °F 59.9 °F 29.96 in Calm     92% 0.00 in
04:09 62.1 °F 59.7 °F 29.96 in Calm     92% 0.00 in
04:14 62.0 °F 59.6 °F 29.96 in Calm     92% 0.00 in
04:19 61.9 °F 59.5 °F 29.97 in Calm     92% 0.00 in
04:24 61.8 °F 59.5 °F 29.97 in Calm     92% 0.00 in
04:29 61.8 °F 59.5 °F 29.97 in Calm     92% 0.00 in
04:34 61.8 °F 59.5 °F 29.97 in Calm     92% 0.00 in
04:39 61.7 °F 59.4 °F 29.97 in Calm     92% 0.00 in
04:44 61.6 °F 59.3 °F 29.98 in Calm     92% 0.00 in
04:49 61.5 °F 59.2 °F 29.98 in Calm     92% 0.00 in
04:54 61.4 °F 59.1 °F 29.98 in Calm     92% 0.00 in
04:59 61.3 °F 59.0 °F 29.98 in Calm     92% 0.00 in
05:04 61.2 °F 58.9 °F 29.98 in Calm     92% 0.00 in
05:09 61.1 °F 58.8 °F 29.99 in Calm     92% 0.00 in
05:14 61.0 °F 58.7 °F 29.99 in Calm     92% 0.00 in
05:19 60.9 °F 58.6 °F 29.99 in Calm     92% 0.00 in
05:24 60.9 °F 58.6 °F 29.99 in Calm     92% 0.00 in
05:29 60.7 °F 58.4 °F 29.99 in Calm     92% 0.00 in
05:34 60.7 °F 58.4 °F 29.99 in Calm     92% 0.00 in
05:39 60.6 °F 58.3 °F 30.00 in Calm     92% 0.00 in
05:44 60.6 °F 58.3 °F 30.00 in Calm     92% 0.00 in
05:49 60.5 °F 58.2 °F 30.00 in Calm     92% 0.00 in
05:54 60.4 °F 58.1 °F 30.00 in Calm     92% 0.00 in
05:59 60.4 °F 58.1 °F 30.00 in Calm     92% 0.00 in
06:04 60.4 °F 58.1 °F 30.01 in Calm     92% 0.00 in
06:09 60.4 °F 58.1 °F 30.01 in Calm     92% 0.00 in
06:14 60.4 °F 58.1 °F 30.01 in Calm     92% 0.00 in
06:19 60.4 °F 58.1 °F 30.01 in Calm     92% 0.00 in
06:24 60.5 °F 58.2 °F 30.01 in Calm     92% 0.00 in
06:29 60.4 °F 58.1 °F 30.02 in Calm     92% 0.00 in
06:34 60.5 °F 58.2 °F 30.02 in Calm     92% 0.00 in
06:39 60.5 °F 58.2 °F 30.02 in Calm     92% 0.00 in
06:44 60.5 °F 58.2 °F 30.02 in Calm     92% 0.00 in
06:49 60.6 °F 58.3 °F 30.02 in Calm     92% 0.00 in
06:54 61.4 °F 59.4 °F 30.02 in Calm     93% 0.00 in
06:59 62.0 °F 60.0 °F 30.02 in Calm     93% 0.00 in
07:04 62.3 °F 60.2 °F 30.02 in Calm     93% 0.00 in
07:09 62.7 °F 60.6 °F 30.02 in Calm     93% 0.00 in
07:14 63.1 °F 61.0 °F 30.03 in Calm     93% 0.00 in
07:19 63.2 °F 61.1 °F 30.03 in Calm     93% 0.00 in
07:24 63.4 °F 61.3 °F 30.03 in Calm     93% 0.00 in
07:29 63.6 °F 61.5 °F 30.03 in Calm     93% 0.00 in
07:34 63.9 °F 61.8 °F 30.03 in Calm     93% 0.00 in
07:39 64.3 °F 62.2 °F 30.03 in Calm     93% 0.00 in
07:44 64.5 °F 62.4 °F 30.03 in Calm     93% 0.00 in
07:49 64.7 °F 62.3 °F 30.03 in Calm     92% 0.00 in
07:54 65.0 °F 62.6 °F 30.03 in Calm     92% 0.00 in
07:59 65.3 °F 62.9 °F 30.04 in Calm     92% 0.00 in
08:04 65.8 °F 63.4 °F 30.04 in Calm     92% 0.00 in
08:09 65.9 °F 63.2 °F 30.04 in Calm     91% 0.00 in
08:14 66.0 °F 63.3 °F 30.04 in Calm     91% 0.00 in
08:19 66.8 °F 63.8 °F 30.04 in Calm     90% 0.00 in
08:24 67.4 °F 64.0 °F 30.04 in Calm     89% 0.00 in
08:29 67.7 °F 63.7 °F 30.04 in Calm     87% 0.00 in
08:34 67.4 °F 62.4 °F 30.04 in Calm   3.0 mph 84% 0.00 in
08:39 67.8 °F 63.1 °F 30.04 in Calm     85% 0.00 in
08:44 68.9 °F 63.9 °F 30.04 in Calm     84% 0.00 in
08:49 69.0 °F 63.3 °F 30.05 in Calm   2.0 mph 82% 0.00 in
08:54 69.5 °F 63.4 °F 30.05 in Calm   2.0 mph 81% 0.00 in
08:59 69.6 °F 63.5 °F 30.05 in NNE 1.0 mph 3.0 mph 81% 0.00 in
09:04 69.7 °F 62.5 °F 30.05 in Calm   2.0 mph 78% 0.00 in
09:09 69.2 °F 62.8 °F 30.05 in Calm   1.0 mph 80% 0.00 in
09:14 69.9 °F 63.1 °F 30.05 in Calm   3.0 mph 79% 0.00 in
09:19 70.1 °F 62.6 °F 30.05 in NNW 1.0 mph 3.0 mph 77% 0.00 in
09:24 70.2 °F 63.7 °F 30.05 in NNW 1.0 mph 3.0 mph 80% 0.00 in
09:29 71.2 °F 63.6 °F 30.05 in Calm   3.0 mph 77% 0.00 in
09:34 71.5 °F 63.5 °F 30.05 in ENE 1.0 mph 4.0 mph 76% 0.00 in
09:39 71.0 °F 63.4 °F 30.05 in NNE 1.0 mph 3.0 mph 77% 0.00 in
09:44 71.1 °F 63.9 °F 30.05 in NE 2.0 mph 3.0 mph 78% 0.00 in
09:49 71.5 °F 63.5 °F 30.05 in NNE 2.0 mph 4.0 mph 76% 0.00 in
09:54 70.8 °F 63.6 °F 30.05 in NNE 1.0 mph 4.0 mph 78% 0.00 in
09:59 70.2 °F 63.4 °F 30.05 in NNW 1.0 mph 3.0 mph 79% 0.00 in
10:04 69.7 °F 63.3 °F 30.05 in Calm   4.0 mph 80% 0.00 in
10:09 69.7 °F 63.3 °F 30.05 in Calm   3.0 mph 80% 0.00 in
10:14 70.0 °F 63.2 °F 30.05 in NNW 2.0 mph 3.0 mph 79% 0.00 in
10:19 71.3 °F 64.8 °F 30.05 in NNW 1.0 mph 4.0 mph 80% 0.00 in
10:24 71.6 °F 64.0 °F 30.06 in NW 2.0 mph 5.0 mph 77% 0.00 in
10:29 70.9 °F 63.7 °F 30.06 in NW 2.0 mph 6.0 mph 78% 0.00 in
10:34 70.7 °F 63.1 °F 30.06 in Calm   4.0 mph 77% 0.00 in
10:39 70.1 °F 62.9 °F 30.06 in NNW 3.0 mph 5.0 mph 78% 0.00 in
10:44 70.1 °F 63.6 °F 30.06 in NE 2.0 mph 8.0 mph 80% 0.00 in
10:49 71.1 °F 64.6 °F 30.06 in North 2.0 mph 8.0 mph 80% 0.00 in
10:54 72.3 °F 64.7 °F 30.06 in NE 2.0 mph 7.0 mph 77% 0.00 in
10:59 72.2 °F 63.8 °F 30.06 in NE 3.0 mph 7.0 mph 75% 0.00 in
11:04 73.5 °F 65.1 °F 30.06 in ENE 2.0 mph 5.0 mph 75% 0.00 in
11:09 73.3 °F 63.7 °F 30.07 in ENE 4.0 mph 8.0 mph 72% 0.00 in
11:14 73.7 °F 64.9 °F 30.06 in SSE 3.0 mph 4.0 mph 74% 0.00 in
11:19 73.9 °F 65.5 °F 30.06 in SE 2.0 mph 3.0 mph 75% 0.00 in
11:24 74.4 °F 63.1 °F 30.06 in ENE 1.0 mph 4.0 mph 68% 0.00 in
11:29 74.4 °F 62.7 °F 30.06 in North 1.0 mph 4.0 mph 67% 0.00 in
11:34 74.7 °F 62.6 °F 30.06 in Calm   4.0 mph 66% 0.00 in
11:39 75.0 °F 63.3 °F 30.06 in ENE 2.0 mph 6.0 mph 67% 0.00 in
11:44 75.3 °F 62.7 °F 30.06 in Calm   7.0 mph 65% 0.00 in
11:49 74.7 °F 64.3 °F 30.06 in NNE 1.0 mph 4.0 mph 70% 0.00 in
11:54 75.3 °F 63.6 °F 30.06 in NNE 2.0 mph 7.0 mph 67% 0.00 in
11:59 74.2 °F 63.8 °F 30.06 in NNE 2.0 mph 7.0 mph 70% 0.00 in
12:04 75.4 °F 64.9 °F 30.06 in NE 2.0 mph 5.0 mph 70% 0.00 in
12:09 75.2 °F 63.9 °F 30.06 in NE 2.0 mph 7.0 mph 68% 0.00 in
12:14 75.8 °F 63.6 °F 30.06 in NW 2.0 mph 7.0 mph 66% 0.00 in
12:19 76.5 °F 64.7 °F 30.05 in ENE 1.0 mph 4.0 mph 67% 0.00 in
12:24 75.3 °F 63.2 °F 30.05 in NE 2.0 mph 7.0 mph 66% 0.00 in
12:29 74.2 °F 62.1 °F 30.05 in NNW 3.0 mph 5.0 mph 66% 0.00 in
12:34 74.6 °F 63.3 °F 30.05 in Calm   7.0 mph 68% 0.00 in
12:39 75.4 °F 63.2 °F 30.05 in North 2.0 mph 7.0 mph 66% 0.00 in
12:44 75.5 °F 65.0 °F 30.05 in NNW 3.0 mph 7.0 mph 70% 0.00 in
12:49 76.4 °F 63.3 °F 30.05 in ENE 8.0 mph 8.0 mph 64% 0.00 in
12:54 76.8 °F 64.1 °F 30.05 in East 3.0 mph 8.0 mph 65% 0.00 in
12:59 76.5 °F 63.0 °F 30.05 in ESE 2.0 mph 8.0 mph 63% 0.00 in
13:04 76.1 °F 63.5 °F 30.05 in NNE 2.0 mph 6.0 mph 65% 0.00 in
13:09 75.0 °F 62.9 °F 30.05 in NNW 2.0 mph 6.0 mph 66% 0.00 in
13:14 74.2 °F 61.7 °F 30.05 in NE 3.0 mph 7.0 mph 65% 0.00 in
13:19 75.8 °F 63.2 °F 30.05 in ENE 3.0 mph 8.0 mph 65% 0.00 in
13:24 76.6 °F 61.7 °F 30.05 in NE 2.0 mph 7.0 mph 60% 0.00 in
13:29 77.4 °F 62.9 °F 30.05 in NW 1.0 mph 7.0 mph 61% 0.00 in
13:34 78.0 °F 63.9 °F 30.05 in ENE 8.0 mph 9.0 mph 62% 0.00 in
13:39 76.2 °F 62.2 °F 30.05 in NNE 2.0 mph 8.0 mph 62% 0.00 in
13:44 75.6 °F 62.1 °F 30.05 in NW 2.0 mph 8.0 mph 63% 0.00 in
13:49 75.9 °F 63.3 °F 30.05 in NW 4.0 mph 6.0 mph 65% 0.00 in
13:54 77.0 °F 64.3 °F 30.05 in NE 2.0 mph 6.0 mph 65% 0.00 in
13:59 75.9 °F 62.8 °F 30.05 in NNE 3.0 mph 7.0 mph 64% 0.00 in
14:04 76.1 °F 64.8 °F 30.05 in NE 3.0 mph 7.0 mph 68% 0.00 in
14:09 77.3 °F 63.7 °F 30.05 in NE 3.0 mph 9.0 mph 63% 0.00 in
14:14 77.9 °F 63.8 °F 30.05 in NE 4.0 mph 10.0 mph 62% 0.00 in
14:19 78.4 °F 63.8 °F 30.04 in ENE 4.0 mph 10.0 mph 61% 0.00 in
14:24 78.2 °F 64.6 °F 30.04 in NNE 3.0 mph 7.0 mph 63% 0.00 in
14:29 76.8 °F 63.7 °F 30.04 in NNE 3.0 mph 7.0 mph 64% 0.00 in
14:34 78.1 °F 64.0 °F 30.05 in NNE 3.0 mph 8.0 mph 62% 0.00 in
14:39 78.5 °F 64.9 °F 30.04 in North 2.0 mph 5.0 mph 63% 0.00 in
14:44 78.7 °F 64.1 °F 30.04 in NNW 1.0 mph 5.0 mph 61% 0.00 in
14:49 79.4 °F 64.8 °F 30.04 in North 3.0 mph 6.0 mph 61% 0.00 in
14:54 78.1 °F 62.6 °F 30.05 in North 3.0 mph 11.0 mph 59% 0.00 in
14:59 77.0 °F 63.4 °F 30.04 in NNW 1.0 mph 5.0 mph 63% 0.00 in
15:04 78.5 °F 63.9 °F 30.05 in North 2.0 mph 6.0 mph 61% 0.00 in
15:09 78.7 °F 63.2 °F 30.04 in NE 3.0 mph 8.0 mph 59% 0.00 in
15:14 79.0 °F 64.9 °F 30.04 in NNE 3.0 mph 10.0 mph 62% 0.00 in
15:19 79.1 °F 63.5 °F 30.04 in North 3.0 mph 10.0 mph 59% 0.00 in
15:24 79.4 °F 63.3 °F 30.04 in NE 5.0 mph 7.0 mph 58% 0.00 in
15:29 79.2 °F 63.1 °F 30.04 in NNW 6.0 mph 9.0 mph 58% 0.00 in
15:34 79.1 °F 62.6 °F 30.04 in NW 1.0 mph 6.0 mph 57% 0.00 in
15:39 79.3 °F 62.7 °F 30.04 in North 3.0 mph 6.0 mph 57% 0.00 in
15:44 79.1 °F 63.5 °F 30.03 in NNW 3.0 mph 6.0 mph 59% 0.00 in
15:49 79.6 °F 63.0 °F 30.03 in NNW 3.0 mph 6.0 mph 57% 0.00 in
15:54 78.5 °F 61.5 °F 30.03 in NNE 4.0 mph 10.0 mph 56% 0.00 in
15:59 78.6 °F 62.1 °F 30.03 in ENE 5.0 mph 9.0 mph 57% 0.00 in
16:04 78.8 °F 61.8 °F 30.02 in ENE 4.0 mph 9.0 mph 56% 0.00 in
16:09 77.6 °F 61.7 °F 30.03 in NE 3.0 mph 10.0 mph 58% 0.00 in
16:14 77.1 °F 62.1 °F 30.02 in NE 7.0 mph 7.0 mph 60% 0.00 in
16:19 76.3 °F 61.9 °F 30.03 in Calm   7.0 mph 61% 0.00 in
16:24 76.7 °F 61.8 °F 30.02 in NNW 2.0 mph 6.0 mph 60% 0.00 in
16:29 77.9 °F 61.9 °F 30.03 in NNW 4.0 mph 6.0 mph 58% 0.00 in
16:34 79.1 °F 64.5 °F 30.03 in NNW 3.0 mph 7.0 mph 61% 0.00 in
16:39 78.3 °F 61.8 °F 30.03 in North 3.0 mph 8.0 mph 57% 0.00 in
16:44 77.7 °F 62.7 °F 30.03 in NE 4.0 mph 10.0 mph 60% 0.00 in
16:49 78.2 °F 62.2 °F 30.02 in East 7.0 mph 9.0 mph 58% 0.00 in
16:54 77.6 °F 61.7 °F 30.03 in NE 6.0 mph 9.0 mph 58% 0.00 in
16:59 76.6 °F 62.1 °F 30.02 in NNE 3.0 mph 10.0 mph 61% 0.00 in
17:04 75.9 °F 61.9 °F 30.02 in NE 2.0 mph 9.0 mph 62% 0.00 in
17:09 76.7 °F 61.8 °F 30.02 in ENE 3.0 mph 9.0 mph 60% 0.00 in
17:14 77.8 °F 62.3 °F 30.02 in ENE 3.0 mph 8.0 mph 59% 0.00 in
17:19 78.1 °F 62.6 °F 30.02 in NNE 2.0 mph 7.0 mph 59% 0.00 in
17:24 78.0 °F 62.5 °F 30.02 in North 3.0 mph 5.0 mph 59% 0.00 in
17:29 77.7 °F 61.7 °F 30.02 in NE 2.0 mph 7.0 mph 58% 0.00 in
17:34 77.4 °F 62.4 °F 30.03 in NNW 4.0 mph 5.0 mph 60% 0.00 in
17:39 77.4 °F 61.9 °F 30.03 in NNE 3.0 mph 6.0 mph 59% 0.00 in
17:44 76.8 °F 61.4 °F 30.03 in NNW 3.0 mph 6.0 mph 59% 0.00 in
17:49 77.2 °F 61.8 °F 30.03 in NNW 3.0 mph 7.0 mph 59% 0.00 in
17:54 76.8 °F 61.9 °F 30.03 in NNW 2.0 mph 7.0 mph 60% 0.00 in
17:59 77.0 °F 61.1 °F 30.03 in Calm   6.0 mph 58% 0.00 in
18:04 77.0 °F 62.0 °F 30.03 in NE 2.0 mph 7.0 mph 60% 0.00 in
18:09 77.0 °F 61.1 °F 30.03 in NE 2.0 mph 7.0 mph 58% 0.00 in
18:14 76.8 °F 60.9 °F 30.02 in ENE 2.0 mph 7.0 mph 58% 0.00 in
18:19 76.2 °F 60.8 °F 30.02 in ENE 1.0 mph 5.0 mph 59% 0.00 in
18:24 75.9 °F 60.5 °F 30.02 in NE 1.0 mph 7.0 mph 59% 0.00 in
18:29 76.0 °F 61.1 °F 30.02 in ENE 2.0 mph 10.0 mph 60% 0.00 in
18:34 75.8 °F 60.9 °F 30.02 in NE 3.0 mph 4.0 mph 60% 0.00 in
18:39 75.5 °F 60.6 °F 30.02 in NE 2.0 mph 5.0 mph 60% 0.00 in
18:44 75.5 °F 61.1 °F 30.02 in NE 1.0 mph 5.0 mph 61% 0.00 in
18:49 75.4 °F 61.0 °F 30.02 in NE 1.0 mph 4.0 mph 61% 0.00 in
18:54 75.5 °F 61.1 °F 30.02 in NNE 1.0 mph 3.0 mph 61% 0.00 in
18:59 75.5 °F 61.1 °F 30.02 in NE 2.0 mph 8.0 mph 61% 0.00 in
19:04 75.0 °F 61.5 °F 30.02 in NE 3.0 mph 8.0 mph 63% 0.00 in
19:09 74.6 °F 61.2 °F 30.02 in NNW 1.0 mph 4.0 mph 63% 0.00 in
19:19 74.2 °F 60.8 °F 30.02 in ENE 1.0 mph 4.0 mph 63% 0.00 in
19:24 74.2 °F 61.2 °F 30.02 in ENE 1.0 mph 7.0 mph 64% 0.00 in
19:29 74.1 °F 61.1 °F 30.02 in East 2.0 mph 7.0 mph 64% 0.00 in
19:34 74.0 °F 61.5 °F 30.02 in ENE 2.0 mph 7.0 mph 65% 0.00 in
19:39 73.8 °F 61.3 °F 30.02 in ESE 3.0 mph 7.0 mph 65% 0.00 in
19:44 73.7 °F 61.2 °F 30.02 in ENE 4.0 mph 8.0 mph 65% 0.00 in
19:49 73.5 °F 61.4 °F 30.02 in ENE 4.0 mph 8.0 mph 66% 0.00 in
19:54 73.3 °F 61.3 °F 30.02 in NE 4.0 mph 8.0 mph 66% 0.00 in
19:59 73.1 °F 61.5 °F 30.02 in NE 4.0 mph 10.0 mph 67% 0.00 in
20:04 72.9 °F 61.3 °F 30.01 in ENE 4.0 mph 10.0 mph 67% 0.00 in
20:09 72.6 °F 61.4 °F 30.02 in ENE 3.0 mph 7.0 mph 68% 0.00 in
20:14 72.4 °F 61.7 °F 30.02 in NE 6.0 mph 8.0 mph 69% 0.00 in
20:19 72.2 °F 61.5 °F 30.02 in NE 4.0 mph 8.0 mph 69% 0.00 in
20:24 71.9 °F 61.6 °F 30.02 in NE 2.0 mph 7.0 mph 70% 0.00 in
20:29 71.7 °F 61.4 °F 30.02 in NE 1.0 mph 4.0 mph 70% 0.00 in
20:34 71.4 °F 61.5 °F 30.02 in ENE 3.0 mph 7.0 mph 71% 0.00 in
20:39 71.2 °F 61.3 °F 30.02 in NE 3.0 mph 6.0 mph 71% 0.00 in
20:44 71.1 °F 61.6 °F 30.02 in NE 3.0 mph 7.0 mph 72% 0.00 in
20:49 70.9 °F 61.4 °F 30.02 in NE 4.0 mph 7.0 mph 72% 0.00 in
20:54 70.7 °F 61.2 °F 30.03 in NE 3.0 mph 7.0 mph 72% 0.00 in
20:59 70.5 °F 61.4 °F 30.03 in NE 3.0 mph 7.0 mph 73% 0.00 in
21:04 70.3 °F 61.2 °F 30.03 in NE 3.0 mph 7.0 mph 73% 0.00 in
21:09 70.1 °F 61.4 °F 30.03 in NE 3.0 mph 7.0 mph 74% 0.00 in
21:14 69.9 °F 61.2 °F 30.03 in NE 3.0 mph 6.0 mph 74% 0.00 in
21:19 69.8 °F 61.5 °F 30.03 in ENE 3.0 mph 6.0 mph 75% 0.00 in
21:24 69.6 °F 61.3 °F 30.03 in ENE 2.0 mph 7.0 mph 75% 0.00 in
21:29 69.5 °F 61.2 °F 30.03 in ENE 2.0 mph 9.0 mph 75% 0.00 in
21:34 69.3 °F 61.4 °F 30.03 in ENE 3.0 mph 9.0 mph 76% 0.00 in
21:39 69.0 °F 61.1 °F 30.03 in ENE 3.0 mph 8.0 mph 76% 0.00 in
21:44 68.8 °F 60.9 °F 30.03 in East 5.0 mph 5.0 mph 76% 0.00 in
21:49 68.5 °F 61.0 °F 30.03 in ENE 2.0 mph 6.0 mph 77% 0.00 in
21:54 68.3 °F 61.2 °F 30.03 in ENE 2.0 mph 6.0 mph 78% 0.00 in
21:59 68.0 °F 60.9 °F 30.03 in ENE 2.0 mph 6.0 mph 78% 0.00 in
22:04 67.8 °F 60.7 °F 30.03 in ENE 2.0 mph 4.0 mph 78% 0.00 in
22:09 67.7 °F 60.6 °F 30.04 in East 2.0 mph 5.0 mph 78% 0.00 in
22:14 67.6 °F 60.5 °F 30.04 in ENE 2.0 mph 6.0 mph 78% 0.00 in
22:19 67.5 °F 60.4 °F 30.04 in Calm   7.0 mph 78% 0.00 in
22:24 67.4 °F 60.3 °F 30.03 in East 2.0 mph 3.0 mph 78% 0.00 in
22:29 67.2 °F 60.1 °F 30.04 in East 2.0 mph 6.0 mph 78% 0.00 in
22:34 67.1 °F 60.0 °F 30.04 in East 3.0 mph 6.0 mph 78% 0.00 in
22:39 67.0 °F 59.9 °F 30.04 in East 2.0 mph 7.0 mph 78% 0.00 in
22:44 66.9 °F 60.2 °F 30.04 in ENE 2.0 mph 7.0 mph 79% 0.00 in
22:49 66.8 °F 60.1 °F 30.04 in ENE 2.0 mph 4.0 mph 79% 0.00 in
22:54 66.6 °F 59.9 °F 30.05 in Calm   3.0 mph 79% 0.00 in
22:59 66.4 °F 59.7 °F 30.05 in Calm   5.0 mph 79% 0.00 in
23:04 66.3 °F 59.9 °F 30.05 in East 3.0 mph 5.0 mph 80% 0.00 in
23:09 66.1 °F 59.7 °F 30.05 in East 1.0 mph 3.0 mph 80% 0.00 in
23:14 65.9 °F 59.6 °F 30.05 in East 1.0 mph 3.0 mph 80% 0.00 in
23:19 65.8 °F 59.5 °F 30.05 in Calm     80% 0.00 in
23:24 65.6 °F 59.6 °F 30.05 in East 1.0 mph 5.0 mph 81% 0.00 in
23:29 65.5 °F 59.5 °F 30.05 in East 1.0 mph 5.0 mph 81% 0.00 in
23:34 65.4 °F 59.4 °F 30.04 in East 2.0 mph 5.0 mph 81% 0.00 in
23:39 65.3 °F 59.3 °F 30.04 in ENE 1.0 mph 5.0 mph 81% 0.00 in
23:44 65.1 °F 59.5 °F 30.04 in ENE 2.0 mph 5.0 mph 82% 0.00 in
23:49 65.0 °F 59.4 °F 30.04 in ENE 1.0 mph 5.0 mph 82% 0.00 in
23:54 64.8 °F 59.2 °F 30.04 in East 1.0 mph 5.0 mph 82% 0.00 in
23:59 64.8 °F 59.2 °F 30.04 in East 3.0 mph 6.0 mph 82% 0.00 in
Buffalo, New York, USA
Compliments of Weather Underground - 2.5 mb